首页
METAR-TAF:

METAR-TAF

机场 :

伯明翰-沙特尔斯沃思国际机场

伯明翰, 阿拉巴马州, 美国

纬度: 33-33-56N, 经度: 086-44-42W, 海拔: 196米

当前天气观测

该预报发布于33分钟前的22:53 UTC
风速9节,风向西南
温度 13°C
湿度 77%
气压 1020 hPa
能見度: 16.1公里
散云层高于3500英尺
多云层高于4300英尺
阴天层高于11000英尺
小雨

METAR: KBHM 132253Z 23009KT 10SM -RA SCT035 BKN043 OVC110 13/09 A3012 RMK AO2 RAB01 SLP196 P0001 T01280094 $

时间: 18:26 (23:26 UTC)

预报

该预报发布于5小时和47分钟前的17:39 UTC
预报有效从13日的 18点(UTC)到 14日的 18点(UTC)
风速4节,风向西转西北
能見度: 10公里
多云层高于3500英尺
从 13日的 1930点(UTC)
风速6节,风向西
能見度: 9.7公里
阴天层高于8000英尺
小雨, 轻雾
从 14日的 0200点(UTC)
风速3节,风向多变
能見度: 10公里
多云层高于15000英尺
从 14日的 0400点(UTC)
风速3节,风向多变
能見度: 10公里
多云层高于2500英尺
阴天层高于5000英尺
从 14日的 1500点(UTC)
风速5节,风向多变
能見度: 10公里
阴天层高于10000英尺

TAF: KBHM 131739Z 1318/1418 29004KT P6SM BKN035 FM131930 28006KT 6SM -RA BR OVC080 FM140200 VRB03KT P6SM BKN150 FM140400 VRB03KT P6SM BKN025 OVC050 FM141500 VRB05KT P6SM OVC100

超过4000个机场的气象观测和天气预报(METAR&TAF报告)。

可查询的气象台以黄色和红色小点在地图上表示。

将鼠标移到小点上方,可查看气象台名称。

然后点击查看天气观测和预报。

如需切换地图:点击带黑十字的绿色按钮放大地图;点击带横线的绿色按钮缩小地图;或者点击绿色箭头查看邻近地区的地图。


METAR-TAF: